Grayson, Oklahoma
Current Conditions -  °F | °C
As of 9:35 AM on Friday 24 Oct 2014 (Local Time) from KOKM Reporting Station
Clear Clear  
Wind Chill: 62°   Ceiling: Unl
Heat Index: 62°   Visibility: 10mi
Dew Point: 54°   Wind: 5mph
Humidity: 77%   Direction: 240°WSW
Pressure: 30.13"   Gusts: NA
Location:  35.4729°N, 95.9709°W
Report Text: KOKM 241435Z AUTO 24004KT 10SM CLR 16/12 A3013 RMK AO2 T01640123
Loading
Personal Weather Stations






























Interactive Weather Map
Tropical Storm Tracking
New forecast layout! Learn more

10-Day Weather Forecast

Advertisements
Track Severe Weather on mobile